Wilson Lista — 8PRW — position and weather

sailwx.info

Track history (hours):
 
Tides and Currents Weather Stations Pressure Air Temp Water Temp Dewpoint Dewpoint Depression Visibility Wind Speed Wind Dir Waves Ship Positions

Wilson Lista

Last reported at 2015-Jan-25 04:32 UTC. Time now 2015-Jan-29 08:22 UTC.
Position N 59°07' E 005°25'.

Length 88 m; draft 3.9 m.

Type: Cargo ship. MMSI: 314188000.

Date/timePositionNaut miles runAvg speedWind from/ knotsBaromVisibWave heightAir tempDewpointWater temp
2015-Jan-25 04:32N 59°07' E 005°25'7 6.7
2015-Jan-25 03:29N 59°09' E 005°38'8 9.2
2015-Jan-25 02:33N 59°03' E 005°51'0 0.1
2015-Jan-25 01:32N 59°03' E 005°51'0 0.0
2015-Jan-25 00:28N 59°03' E 005°51'0 0.0
2015-Jan-24 23:33N 59°03' E 005°51'0 0.0
2015-Jan-24 22:32N 59°03' E 005°51'0 0.0
2015-Jan-24 21:31N 59°03' E 005°51'0 0.0
2015-Jan-24 20:31N 59°03' E 005°51'0 0.0
2015-Jan-24 19:31N 59°03' E 005°51'0 0.0
2015-Jan-24 18:33N 59°03' E 005°51'0 0.0
2015-Jan-24 17:30N 59°03' E 005°51'0 0.0
2015-Jan-24 16:32N 59°03' E 005°51'0 0.0
2015-Jan-24 15:32N 59°03' E 005°51'0 0.0
2015-Jan-24 14:31N 59°03' E 005°51'0 0.0
2015-Jan-24 13:33N 59°03' E 005°51'0 0.0
2015-Jan-24 12:32N 59°03' E 005°51'0 0.0
2015-Jan-24 11:32N 59°03' E 005°51'0 0.0
2015-Jan-24 10:31N 59°03' E 005°51'0 0.0
2015-Jan-24 09:31N 59°03' E 005°51'0 0.0
2015-Jan-24 08:33N 59°03' E 005°51'0 0.0
2015-Jan-24 07:31N 59°03' E 005°51'0 0.4
2015-Jan-24 06:33N 59°03' E 005°52'1 0.6
2015-Jan-24 05:33N 59°03' E 005°52'0 0.2
2015-Jan-24 04:33N 59°03' E 005°53'1 0.9
2015-Jan-24 03:33N 59°04' E 005°52'1 0.5
2015-Jan-24 02:33N 59°04' E 005°52'0 0.2
2015-Jan-24 01:33N 59°03' E 005°52'0 0.4
2015-Jan-24 00:33N 59°04' E 005°52'0 0.0
2015-Jan-23 23:33N 59°04' E 005°52'0 0.4
2015-Jan-23 22:33N 59°03' E 005°52'0 0.1
2015-Jan-23 21:33N 59°03' E 005°53'0 0.2
2015-Jan-23 20:33N 59°04' E 005°53'0 0.4
2015-Jan-23 19:33N 59°04' E 005°52'1 0.5
2015-Jan-23 18:33N 59°04' E 005°52'1 0.6
2015-Jan-23 17:33N 59°04' E 005°52'0 0.2
2015-Jan-23 16:33N 59°04' E 005°52'0 0.3
2015-Jan-23 15:33N 59°03' E 005°52'0 0.2
2015-Jan-23 14:33N 59°04' E 005°52'0 0.1
2015-Jan-23 13:33N 59°04' E 005°52'0 0.0
2015-Jan-23 12:33N 59°04' E 005°52'0 0.1
2015-Jan-23 11:33N 59°04' E 005°52'0 0.2
2015-Jan-23 10:33N 59°04' E 005°52'0 0.0
2015-Jan-23 09:33N 59°04' E 005°52'0 0.1
2015-Jan-23 08:33N 59°04' E 005°52'0 0.4
2015-Jan-23 07:32N 59°03' E 005°51'0 0.0
2015-Jan-23 06:31N 59°03' E 005°51'0 0.0
2015-Jan-23 05:31N 59°03' E 005°51'0 0.0
2015-Jan-23 04:33N 59°03' E 005°51'0 0.0
2015-Jan-23 03:30N 59°03' E 005°51'0 0.0
2015-Jan-23 02:32N 59°03' E 005°51'0 0.0
2015-Jan-23 01:25N 59°03' E 005°51'0 0.0
2015-Jan-23 00:32N 59°03' E 005°51'0 0.0
2015-Jan-22 23:32N 59°03' E 005°51'0 0.0
2015-Jan-22 22:31N 59°03' E 005°51'0 0.0
2015-Jan-22 21:33N 59°03' E 005°51'0 0.0
2015-Jan-22 20:33N 59°03' E 005°51'0 0.0
2015-Jan-22 19:33N 59°03' E 005°51'0 0.0
2015-Jan-22 18:33N 59°03' E 005°51'1 0.6
2015-Jan-22 17:33N 59°03' E 005°51'0 0.4
2015-Jan-22 16:33N 59°03' E 005°52'4 3.7
2015-Jan-22 15:33N 59°02' E 005°45'3 3.1
2015-Jan-22 14:31N 58°59' E 005°43'0 0.0
2015-Jan-22 13:31N 58°59' E 005°43'0 0.0
2015-Jan-22 12:33N 58°59' E 005°43'0 0.0
2015-Jan-22 11:33N 58°59' E 005°43'0 0.0
2015-Jan-22 10:33N 58°59' E 005°43'0 0.0
2015-Jan-22 09:32N 58°59' E 005°43'0 0.0
2015-Jan-22 08:32N 58°59' E 005°43'0 0.0
2015-Jan-22 07:31N 58°59' E 005°43'0 0.0
2015-Jan-22 06:31N 58°59' E 005°43'0 0.0
2015-Jan-22 05:33N 58°59' E 005°43'0 0.0
2015-Jan-22 04:33N 58°59' E 005°43'0 0.0
2015-Jan-22 03:32N 58°59' E 005°43'0 0.0
2015-Jan-22 02:32N 58°59' E 005°43'0 0.0
2015-Jan-22 01:32N 58°59' E 005°43'0 0.0
2015-Jan-22 00:31N 58°59' E 005°43'0 0.0
2015-Jan-21 23:31N 58°59' E 005°43'0 0.0
2015-Jan-21 22:48N 58°59' E 005°43'0 0.0
2015-Jan-21 22:45N 58°59' E 005°43'0 0.0
2015-Jan-21 22:33N 58°59' E 005°43'0 0.0
2015-Jan-21 21:33N 58°59' E 005°43'0 0.0
2015-Jan-21 20:32N 58°59' E 005°43'0 0.0
2015-Jan-21 19:32N 58°59' E 005°43'0 0.0
2015-Jan-21 18:32N 58°59' E 005°43'0 0.0
2015-Jan-21 17:31N 58°59' E 005°43'0 0.0
2015-Jan-21 16:31N 58°59' E 005°43'0 0.0
2015-Jan-21 15:33N 58°59' E 005°43'0 0.0
2015-Jan-21 14:33N 58°59' E 005°43'0 0.0
2015-Jan-21 13:29N 58°59' E 005°43'0 0.0
2015-Jan-21 12:32N 58°59' E 005°43'0 0.0
2015-Jan-21 11:32N 58°59' E 005°43'0 0.0
2015-Jan-21 10:31N 58°59' E 005°43'0 0.0
2015-Jan-21 09:31N 58°59' E 005°43'0 0.0
2015-Jan-21 08:33N 58°59' E 005°43'0 0.0
2015-Jan-21 07:33N 58°59' E 005°43'0 0.0
2015-Jan-21 06:32N 58°59' E 005°43'0 0.0
2015-Jan-21 05:32N 58°59' E 005°43'0 0.0
2015-Jan-21 04:31N 58°59' E 005°43'0 0.0
2015-Jan-21 03:32N 58°59' E 005°43'0 0.0
2015-Jan-21 02:32N 58°59' E 005°43'0 0.0
2015-Jan-21 01:32N 58°59' E 005°43'0 0.0
2015-Jan-21 00:31N 58°59' E 005°43'0 0.0
2015-Jan-20 23:31N 58°59' E 005°43'0 0.0
2015-Jan-20 22:33N 58°59' E 005°43'0 0.0
2015-Jan-20 21:33N 58°59' E 005°43'0 0.0
2015-Jan-20 20:33N 58°59' E 005°43'5 5.3
2015-Jan-20 19:33N 59°02' E 005°36'10 9.8
2015-Jan-20 18:33N 58°53' E 005°32'4 3.6
2015-Jan-20 17:33N 58°50' E 005°27'5 5.3
2015-Jan-20 16:33N 58°47' E 005°18'284 8.3
2015-Jan-19 06:27N 56°17' W 002°10'7 7.3
2015-Jan-19 05:33N 56°13' W 002°20'8 7.9
2015-Jan-19 04:33N 56°10' W 002°33'10 9.6
2015-Jan-19 03:33N 56°06' W 002°49'10 9.6
2015-Jan-19 02:33N 56°02' W 003°04'4 4.4
2015-Jan-19 01:33N 55°59' W 003°10'0 0.1
2015-Jan-19 00:27N 55°59' W 003°10'0 0.0
2015-Jan-18 23:21N 55°59' W 003°10'0 0.0
2015-Jan-18 22:26N 55°59' W 003°10'0 0.0
2015-Jan-18 21:23N 55°59' W 003°10'0 0.0
2015-Jan-18 20:32N 55°59' W 003°10'0 0.0
2015-Jan-18 19:25N 55°59' W 003°10'0 0.0
2015-Jan-18 18:31N 55°59' W 003°10'0 0.0
2015-Jan-18 17:27N 55°59' W 003°10'0 0.0
2015-Jan-18 16:33N 55°59' W 003°10'0 0.0
2015-Jan-18 15:29N 55°59' W 003°10'0 0.0
2015-Jan-18 14:32N 55°59' W 003°10'0 0.0
2015-Jan-18 13:32N 55°59' W 003°10'0 0.0
2015-Jan-18 12:22N 55°59' W 003°10'0 0.0
2015-Jan-18 11:31N 55°59' W 003°10'0 0.0
2015-Jan-18 10:33N 55°59' W 003°10'0 0.0
2015-Jan-18 09:23N 55°59' W 003°10'0 0.0
2015-Jan-18 08:32N 55°59' W 003°10'0 0.1
2015-Jan-18 07:32N 55°59' W 003°10'0 0.0
2015-Jan-18 06:28N 55°59' W 003°10'0 0.0
2015-Jan-18 05:22N 55°59' W 003°10'0 0.0
2015-Jan-18 04:31N 55°59' W 003°10'0 0.0
2015-Jan-18 03:24N 55°59' W 003°10'0 0.6
2015-Jan-18 02:33N 55°59' W 003°11'4 4.0
2015-Jan-18 01:33N 56°02' W 003°05'4 4.2
2015-Jan-18 00:33N 56°04' W 002°59'6 5.7
2015-Jan-17 23:33N 56°10' W 003°00'1 1.0
2015-Jan-17 22:33N 56°11' W 003°00'0 0.0
2015-Jan-17 21:23N 56°11' W 003°00'0 0.0
2015-Jan-17 20:32N 56°11' W 003°00'0 0.0
2015-Jan-17 19:25N 56°11' W 003°00'0 0.0
2015-Jan-17 18:19N 56°11' W 003°00'0 0.0
2015-Jan-17 17:28N 56°11' W 003°00'0 0.0
2015-Jan-17 16:33N 56°11' W 003°00'0 0.0
2015-Jan-17 15:30N 56°11' W 003°00'0 0.0
2015-Jan-17 14:23N 56°11' W 003°00'0 0.0
2015-Jan-17 13:32N 56°11' W 003°00'0 0.0
2015-Jan-17 12:22N 56°11' W 003°00'0 0.0
2015-Jan-17 11:31N 56°11' W 003°00'0 0.0
2015-Jan-17 10:28N 56°11' W 003°00'0 0.0
2015-Jan-17 09:33N 56°11' W 003°00'0 0.0
2015-Jan-17 08:30N 56°11' W 003°00'0 0.0
2015-Jan-17 07:23N 56°11' W 003°00'0 0.0
2015-Jan-17 06:32N 56°11' W 003°00'0 0.0
2015-Jan-17 05:25N 56°11' W 003°00'0 0.0
2015-Jan-17 04:28N 56°11' W 003°00'0 0.0
2015-Jan-17 03:28N 56°11' W 003°00'0 0.0
2015-Jan-17 02:33N 56°11' W 003°00'0 0.0
2015-Jan-17 01:30N 56°11' W 003°00'0 0.0
2015-Jan-17 00:32N 56°11' W 003°00'0 0.0
2015-Jan-16 23:32N 56°11' W 003°00'0 0.0
2015-Jan-16 22:25N 56°11' W 003°00'0 0.0
2015-Jan-16 21:31N 56°11' W 003°00'0 0.0
2015-Jan-16 20:25N 56°11' W 003°00'0 0.0
2015-Jan-16 19:33N 56°11' W 003°00'0 0.0
2015-Jan-16 18:30N 56°11' W 003°00'0 0.0
2015-Jan-16 17:32N 56°11' W 003°00'0 0.0
2015-Jan-16 16:32N 56°11' W 003°00'0 0.0
2015-Jan-16 15:22N 56°11' W 003°00'0 0.0
2015-Jan-16 14:31N 56°11' W 003°00'0 0.0
2015-Jan-16 13:24N 56°11' W 003°00'0 0.0
2015-Jan-16 12:33N 56°11' W 003°00'0 0.0
2015-Jan-16 11:27N 56°11' W 003°00'0 0.1
2015-Jan-16 10:30N 56°11' W 003°01'2 1.8
2015-Jan-16 09:31N 56°09' W 002°60'0 0.0
2015-Jan-16 08:30N 56°09' W 002°60'0 0.0
2015-Jan-16 07:33N 56°09' W 002°60'0 0.0
2015-Jan-16 06:33N 56°09' W 002°60'0 0.0
2015-Jan-16 05:23N 56°09' W 002°60'0 0.0
2015-Jan-16 04:32N 56°09' W 002°60'0 0.0
2015-Jan-16 03:28N 56°09' W 002°60'0 0.0
2015-Jan-16 02:31N 56°09' W 002°60'0 0.0
2015-Jan-16 01:30N 56°09' W 002°60'0 0.0
2015-Jan-16 00:33N 56°09' W 002°60'0 0.0
2015-Jan-15 23:33N 56°09' W 002°60'0 0.0
2015-Jan-15 22:23N 56°09' W 002°60'0 0.0
2015-Jan-15 21:32N 56°09' W 002°60'0 0.0
2015-Jan-15 20:28N 56°09' W 002°60'0 0.0
2015-Jan-15 19:31N 56°09' W 002°60'0 0.0
2015-Jan-15 18:30N 56°09' W 002°60'0 0.0
2015-Jan-15 17:33N 56°09' W 002°60'0 0.0
2015-Jan-15 16:29N 56°09' W 002°60'0 0.0
2015-Jan-15 15:23N 56°09' W 002°60'0 0.0
2015-Jan-15 14:32N 56°09' W 002°60'0 0.0
2015-Jan-15 13:25N 56°09' W 002°60'0 0.0
2015-Jan-15 12:31N 56°09' W 002°60'0 0.3
2015-Jan-15 11:28N 56°10' W 002°59'0 0.2
2015-Jan-15 10:19N 56°09' W 002°60'0 0.0
2015-Jan-15 09:30N 56°09' W 002°60'0 0.0
2015-Jan-15 08:33N 56°09' W 002°60'0 0.0
2015-Jan-15 07:32N 56°09' W 002°60'0 0.0
2015-Jan-15 06:26N 56°09' W 002°60'0 0.0
2015-Jan-15 05:32N 56°09' W 002°60'  
Track history (hours):
 
Tides and Currents Weather Stations Pressure Air Temp Water Temp Dewpoint Dewpoint Depression Visibility Wind Speed Wind Dir Waves Ship Positions

Wilson Lista

Last reported at 2015-Jan-25 04:32 UTC. Time now 2015-Jan-29 08:22 UTC.
Position N 59°07' E 005°25'.

Length 88 m; draft 3.9 m.

Type: Cargo ship. MMSI: 314188000.

Date/timePositionNaut miles runAvg speedWind from/ knotsBaromVisibWave heightAir tempDewpointWater temp
2015-Jan-25 04:32N 59°07' E 005°25'7 6.7
2015-Jan-25 03:29N 59°09' E 005°38'8 9.2
2015-Jan-25 02:33N 59°03' E 005°51'0 0.1
2015-Jan-25 01:32N 59°03' E 005°51'0 0.0
2015-Jan-25 00:28N 59°03' E 005°51'0 0.0
2015-Jan-24 23:33N 59°03' E 005°51'0 0.0
2015-Jan-24 22:32N 59°03' E 005°51'0 0.0
2015-Jan-24 21:31N 59°03' E 005°51'0 0.0
2015-Jan-24 20:31N 59°03' E 005°51'0 0.0
2015-Jan-24 19:31N 59°03' E 005°51'0 0.0
2015-Jan-24 18:33N 59°03' E 005°51'0 0.0
2015-Jan-24 17:30N 59°03' E 005°51'0 0.0
2015-Jan-24 16:32N 59°03' E 005°51'0 0.0
2015-Jan-24 15:32N 59°03' E 005°51'0 0.0
2015-Jan-24 14:31N 59°03' E 005°51'0 0.0
2015-Jan-24 13:33N 59°03' E 005°51'0 0.0
2015-Jan-24 12:32N 59°03' E 005°51'0 0.0
2015-Jan-24 11:32N 59°03' E 005°51'0 0.0
2015-Jan-24 10:31N 59°03' E 005°51'0 0.0
2015-Jan-24 09:31N 59°03' E 005°51'0 0.0
2015-Jan-24 08:33N 59°03' E 005°51'0 0.0
2015-Jan-24 07:31N 59°03' E 005°51'0 0.4
2015-Jan-24 06:33N 59°03' E 005°52'1 0.6
2015-Jan-24 05:33N 59°03' E 005°52'0 0.2
2015-Jan-24 04:33N 59°03' E 005°53'1 0.9
2015-Jan-24 03:33N 59°04' E 005°52'1 0.5
2015-Jan-24 02:33N 59°04' E 005°52'0 0.2
2015-Jan-24 01:33N 59°03' E 005°52'0 0.4
2015-Jan-24 00:33N 59°04' E 005°52'0 0.0
2015-Jan-23 23:33N 59°04' E 005°52'0 0.4
2015-Jan-23 22:33N 59°03' E 005°52'0 0.1
2015-Jan-23 21:33N 59°03' E 005°53'0 0.2
2015-Jan-23 20:33N 59°04' E 005°53'0 0.4
2015-Jan-23 19:33N 59°04' E 005°52'1 0.5
2015-Jan-23 18:33N 59°04' E 005°52'1 0.6
2015-Jan-23 17:33N 59°04' E 005°52'0 0.2
2015-Jan-23 16:33N 59°04' E 005°52'0 0.3
2015-Jan-23 15:33N 59°03' E 005°52'0 0.2
2015-Jan-23 14:33N 59°04' E 005°52'0 0.1
2015-Jan-23 13:33N 59°04' E 005°52'0 0.0
2015-Jan-23 12:33N 59°04' E 005°52'0 0.1
2015-Jan-23 11:33N 59°04' E 005°52'0 0.2
2015-Jan-23 10:33N 59°04' E 005°52'0 0.0
2015-Jan-23 09:33N 59°04' E 005°52'0 0.1
2015-Jan-23 08:33N 59°04' E 005°52'0 0.4
2015-Jan-23 07:32N 59°03' E 005°51'0 0.0
2015-Jan-23 06:31N 59°03' E 005°51'0 0.0
2015-Jan-23 05:31N 59°03' E 005°51'0 0.0
2015-Jan-23 04:33N 59°03' E 005°51'0 0.0
2015-Jan-23 03:30N 59°03' E 005°51'0 0.0
2015-Jan-23 02:32N 59°03' E 005°51'0 0.0
2015-Jan-23 01:25N 59°03' E 005°51'0 0.0
2015-Jan-23 00:32N 59°03' E 005°51'0 0.0
2015-Jan-22 23:32N 59°03' E 005°51'0 0.0
2015-Jan-22 22:31N 59°03' E 005°51'0 0.0
2015-Jan-22 21:33N 59°03' E 005°51'0 0.0
2015-Jan-22 20:33N 59°03' E 005°51'0 0.0
2015-Jan-22 19:33N 59°03' E 005°51'0 0.0
2015-Jan-22 18:33N 59°03' E 005°51'1 0.6
2015-Jan-22 17:33N 59°03' E 005°51'0 0.4
2015-Jan-22 16:33N 59°03' E 005°52'4 3.7
2015-Jan-22 15:33N 59°02' E 005°45'3 3.1
2015-Jan-22 14:31N 58°59' E 005°43'0 0.0
2015-Jan-22 13:31N 58°59' E 005°43'0 0.0
2015-Jan-22 12:33N 58°59' E 005°43'0 0.0
2015-Jan-22 11:33N 58°59' E 005°43'0 0.0
2015-Jan-22 10:33N 58°59' E 005°43'0 0.0
2015-Jan-22 09:32N 58°59' E 005°43'0 0.0
2015-Jan-22 08:32N 58°59' E 005°43'0 0.0
2015-Jan-22 07:31N 58°59' E 005°43'0 0.0
2015-Jan-22 06:31N 58°59' E 005°43'0 0.0
2015-Jan-22 05:33N 58°59' E 005°43'0 0.0
2015-Jan-22 04:33N 58°59' E 005°43'0 0.0
2015-Jan-22 03:32N 58°59' E 005°43'0 0.0
2015-Jan-22 02:32N 58°59' E 005°43'0 0.0
2015-Jan-22 01:32N 58°59' E 005°43'0 0.0
2015-Jan-22 00:31N 58°59' E 005°43'0 0.0
2015-Jan-21 23:31N 58°59' E 005°43'0 0.0
2015-Jan-21 22:48N 58°59' E 005°43'0 0.0
2015-Jan-21 22:45N 58°59' E 005°43'0 0.0
2015-Jan-21 22:33N 58°59' E 005°43'0 0.0
2015-Jan-21 21:33N 58°59' E 005°43'0 0.0
2015-Jan-21 20:32N 58°59' E 005°43'0 0.0
2015-Jan-21 19:32N 58°59' E 005°43'0 0.0
2015-Jan-21 18:32N 58°59' E 005°43'0 0.0
2015-Jan-21 17:31N 58°59' E 005°43'0 0.0
2015-Jan-21 16:31N 58°59' E 005°43'0 0.0
2015-Jan-21 15:33N 58°59' E 005°43'0 0.0
2015-Jan-21 14:33N 58°59' E 005°43'0 0.0
2015-Jan-21 13:29N 58°59' E 005°43'0 0.0
2015-Jan-21 12:32N 58°59' E 005°43'0 0.0
2015-Jan-21 11:32N 58°59' E 005°43'0 0.0
2015-Jan-21 10:31N 58°59' E 005°43'0 0.0
2015-Jan-21 09:31N 58°59' E 005°43'0 0.0
2015-Jan-21 08:33N 58°59' E 005°43'0 0.0
2015-Jan-21 07:33N 58°59' E 005°43'0 0.0
2015-Jan-21 06:32N 58°59' E 005°43'0 0.0
2015-Jan-21 05:32N 58°59' E 005°43'0 0.0
2015-Jan-21 04:31N 58°59' E 005°43'0 0.0
2015-Jan-21 03:32N 58°59' E 005°43'0 0.0
2015-Jan-21 02:32N 58°59' E 005°43'0 0.0
2015-Jan-21 01:32N 58°59' E 005°43'0 0.0
2015-Jan-21 00:31N 58°59' E 005°43'0 0.0
2015-Jan-20 23:31N 58°59' E 005°43'0 0.0
2015-Jan-20 22:33N 58°59' E 005°43'0 0.0
2015-Jan-20 21:33N 58°59' E 005°43'0 0.0
2015-Jan-20 20:33N 58°59' E 005°43'5 5.3
2015-Jan-20 19:33N 59°02' E 005°36'10 9.8
2015-Jan-20 18:33N 58°53' E 005°32'4 3.6
2015-Jan-20 17:33N 58°50' E 005°27'5 5.3
2015-Jan-20 16:33N 58°47' E 005°18'284 8.3
2015-Jan-19 06:27N 56°17' W 002°10'7 7.3
2015-Jan-19 05:33N 56°13' W 002°20'8 7.9
2015-Jan-19 04:33N 56°10' W 002°33'10 9.6
2015-Jan-19 03:33N 56°06' W 002°49'10 9.6
2015-Jan-19 02:33N 56°02' W 003°04'4 4.4
2015-Jan-19 01:33N 55°59' W 003°10'0 0.1
2015-Jan-19 00:27N 55°59' W 003°10'0 0.0
2015-Jan-18 23:21N 55°59' W 003°10'0 0.0
2015-Jan-18 22:26N 55°59' W 003°10'0 0.0
2015-Jan-18 21:23N 55°59' W 003°10'0 0.0
2015-Jan-18 20:32N 55°59' W 003°10'0 0.0
2015-Jan-18 19:25N 55°59' W 003°10'0 0.0
2015-Jan-18 18:31N 55°59' W 003°10'0 0.0
2015-Jan-18 17:27N 55°59' W 003°10'0 0.0
2015-Jan-18 16:33N 55°59' W 003°10'0 0.0
2015-Jan-18 15:29N 55°59' W 003°10'0 0.0
2015-Jan-18 14:32N 55°59' W 003°10'0 0.0
2015-Jan-18 13:32N 55°59' W 003°10'0 0.0
2015-Jan-18 12:22N 55°59' W 003°10'0 0.0
2015-Jan-18 11:31N 55°59' W 003°10'0 0.0
2015-Jan-18 10:33N 55°59' W 003°10'0 0.0
2015-Jan-18 09:23N 55°59' W 003°10'0 0.0
2015-Jan-18 08:32N 55°59' W 003°10'0 0.1
2015-Jan-18 07:32N 55°59' W 003°10'0 0.0
2015-Jan-18 06:28N 55°59' W 003°10'0 0.0
2015-Jan-18 05:22N 55°59' W 003°10'0 0.0
2015-Jan-18 04:31N 55°59' W 003°10'0 0.0
2015-Jan-18 03:24N 55°59' W 003°10'0 0.6
2015-Jan-18 02:33N 55°59' W 003°11'4 4.0
2015-Jan-18 01:33N 56°02' W 003°05'4 4.2
2015-Jan-18 00:33N 56°04' W 002°59'6 5.7
2015-Jan-17 23:33N 56°10' W 003°00'1 1.0
2015-Jan-17 22:33N 56°11' W 003°00'0 0.0
2015-Jan-17 21:23N 56°11' W 003°00'0 0.0
2015-Jan-17 20:32N 56°11' W 003°00'0 0.0
2015-Jan-17 19:25N 56°11' W 003°00'0 0.0
2015-Jan-17 18:19N 56°11' W 003°00'0 0.0
2015-Jan-17 17:28N 56°11' W 003°00'0 0.0
2015-Jan-17 16:33N 56°11' W 003°00'0 0.0
2015-Jan-17 15:30N 56°11' W 003°00'0 0.0
2015-Jan-17 14:23N 56°11' W 003°00'0 0.0
2015-Jan-17 13:32N 56°11' W 003°00'0 0.0
2015-Jan-17 12:22N 56°11' W 003°00'0 0.0
2015-Jan-17 11:31N 56°11' W 003°00'0 0.0
2015-Jan-17 10:28N 56°11' W 003°00'0 0.0
2015-Jan-17 09:33N 56°11' W 003°00'0 0.0
2015-Jan-17 08:30N 56°11' W 003°00'0 0.0
2015-Jan-17 07:23N 56°11' W 003°00'0 0.0
2015-Jan-17 06:32N 56°11' W 003°00'0 0.0
2015-Jan-17 05:25N 56°11' W 003°00'0 0.0
2015-Jan-17 04:28N 56°11' W 003°00'0 0.0
2015-Jan-17 03:28N 56°11' W 003°00'0 0.0
2015-Jan-17 02:33N 56°11' W 003°00'0 0.0
2015-Jan-17 01:30N 56°11' W 003°00'0 0.0
2015-Jan-17 00:32N 56°11' W 003°00'0 0.0
2015-Jan-16 23:32N 56°11' W 003°00'0 0.0
2015-Jan-16 22:25N 56°11' W 003°00'0 0.0
2015-Jan-16 21:31N 56°11' W 003°00'0 0.0
2015-Jan-16 20:25N 56°11' W 003°00'0 0.0
2015-Jan-16 19:33N 56°11' W 003°00'0 0.0
2015-Jan-16 18:30N 56°11' W 003°00'0 0.0
2015-Jan-16 17:32N 56°11' W 003°00'0 0.0
2015-Jan-16 16:32N 56°11' W 003°00'0 0.0
2015-Jan-16 15:22N 56°11' W 003°00'0 0.0
2015-Jan-16 14:31N 56°11' W 003°00'0 0.0
2015-Jan-16 13:24N 56°11' W 003°00'0 0.0
2015-Jan-16 12:33N 56°11' W 003°00'0 0.0
2015-Jan-16 11:27N 56°11' W 003°00'0 0.1
2015-Jan-16 10:30N 56°11' W 003°01'2 1.8
2015-Jan-16 09:31N 56°09' W 002°60'0 0.0
2015-Jan-16 08:30N 56°09' W 002°60'0 0.0
2015-Jan-16 07:33N 56°09' W 002°60'0 0.0
2015-Jan-16 06:33N 56°09' W 002°60'0 0.0
2015-Jan-16 05:23N 56°09' W 002°60'0 0.0
2015-Jan-16 04:32N 56°09' W 002°60'0 0.0
2015-Jan-16 03:28N 56°09' W 002°60'0 0.0
2015-Jan-16 02:31N 56°09' W 002°60'0 0.0
2015-Jan-16 01:30N 56°09' W 002°60'0 0.0
2015-Jan-16 00:33N 56°09' W 002°60'0 0.0
2015-Jan-15 23:33N 56°09' W 002°60'0 0.0
2015-Jan-15 22:23N 56°09' W 002°60'0 0.0
2015-Jan-15 21:32N 56°09' W 002°60'0 0.0
2015-Jan-15 20:28N 56°09' W 002°60'0 0.0
2015-Jan-15 19:31N 56°09' W 002°60'0 0.0
2015-Jan-15 18:30N 56°09' W 002°60'0 0.0
2015-Jan-15 17:33N 56°09' W 002°60'0 0.0
2015-Jan-15 16:29N 56°09' W 002°60'0 0.0
2015-Jan-15 15:23N 56°09' W 002°60'0 0.0
2015-Jan-15 14:32N 56°09' W 002°60'0 0.0
2015-Jan-15 13:25N 56°09' W 002°60'0 0.0
2015-Jan-15 12:31N 56°09' W 002°60'0 0.3
2015-Jan-15 11:28N 56°10' W 002°59'0 0.2
2015-Jan-15 10:19N 56°09' W 002°60'0 0.0
2015-Jan-15 09:30N 56°09' W 002°60'0 0.0
2015-Jan-15 08:33N 56°09' W 002°60'0 0.0
2015-Jan-15 07:32N 56°09' W 002°60'0 0.0
2015-Jan-15 06:26N 56°09' W 002°60'0 0.0
2015-Jan-15 05:32N 56°09' W 002°60'  

Dump ship's entire track history